createdAt,value
2023-05-14T00:01:46.497Z,13.65
2023-05-14T00:04:31.584Z,14.18
2023-05-14T00:07:16.815Z,14.10
2023-05-14T00:10:01.975Z,13.48
2023-05-14T00:12:46.899Z,13.65
2023-05-14T00:15:34.184Z,12.85
2023-05-14T00:18:19.637Z,14.13
2023-05-14T00:21:04.531Z,13.93
2023-05-14T00:23:49.501Z,12.85
2023-05-14T00:26:34.327Z,13.45
2023-05-14T00:29:19.405Z,13.65
2023-05-14T00:32:04.847Z,12.98
2023-05-14T00:34:49.891Z,13.63
2023-05-14T00:37:36.333Z,12.88
2023-05-14T00:40:26.646Z,14.52
2023-05-14T00:45:57.036Z,13.05
2023-05-14T00:48:42.265Z,13.63
2023-05-14T00:51:27.638Z,14.02
2023-05-14T00:54:15.986Z,14.20
2023-05-14T00:57:02.427Z,14.23
2023-05-14T00:59:47.553Z,13.57
2023-05-14T01:02:32.794Z,14.23
2023-05-14T01:05:18.403Z,14.95
2023-05-14T01:08:22.307Z,15.63
2023-05-14T01:11:09.066Z,14.18
2023-05-14T01:14:24.584Z,14.98
2023-05-14T01:17:13.094Z,15.73
2023-05-14T01:20:00.273Z,15.02
2023-05-14T01:22:45.800Z,15.35
2023-05-14T01:25:31.396Z,14.35
2023-05-14T01:28:18.243Z,15.98
2023-05-14T01:31:08.222Z,14.70
2023-05-14T01:33:56.493Z,15.30
2023-05-14T01:36:42.758Z,15.10
2023-05-14T01:39:28.237Z,14.65
2023-05-14T01:42:13.526Z,15.25
2023-05-14T01:44:59.322Z,15.20
2023-05-14T01:47:44.506Z,15.73
2023-05-14T01:50:29.426Z,15.98
2023-05-14T01:53:14.442Z,15.90
2023-05-14T01:55:59.352Z,16.42
2023-05-14T01:58:44.282Z,16.05
2023-05-14T02:01:29.368Z,16.73
2023-05-14T02:04:14.852Z,17.05
2023-05-14T02:07:00.445Z,18.02
2023-05-14T02:09:45.942Z,17.55
2023-05-14T02:12:30.965Z,17.25
2023-05-14T02:15:16.356Z,18.10
2023-05-14T02:18:01.622Z,18.35
2023-05-14T02:20:47.000Z,17.77
2023-05-14T02:23:41.052Z,17.42
2023-05-14T02:26:27.204Z,19.23
2023-05-14T02:29:12.700Z,17.73
2023-05-14T02:31:57.762Z,18.13
2023-05-14T02:34:42.515Z,19.45
2023-05-14T02:37:27.458Z,17.73
2023-05-14T02:40:12.406Z,19.33
2023-05-14T02:42:57.686Z,18.88
2023-05-14T02:45:43.008Z,19.90
2023-05-14T02:48:27.964Z,18.42
2023-05-14T02:51:12.967Z,18.63
2023-05-14T02:53:57.831Z,18.60
2023-05-14T02:56:42.961Z,17.67
2023-05-14T02:59:27.835Z,19.10
2023-05-14T03:02:13.747Z,18.27
2023-05-14T03:04:59.181Z,18.80
2023-05-14T03:07:44.192Z,17.88
2023-05-14T03:10:29.414Z,17.67
2023-05-14T03:13:17.844Z,19.05
2023-05-14T03:16:02.861Z,20.58
2023-05-14T03:18:47.942Z,19.52
2023-05-14T03:21:33.062Z,20.63
2023-05-14T03:24:18.353Z,20.55
2023-05-14T03:27:03.317Z,20.20
2023-05-14T03:29:48.681Z,20.25
2023-05-14T03:32:33.640Z,21.35
2023-05-14T03:35:19.066Z,23.20
2023-05-14T03:38:04.529Z,23.13
2023-05-14T03:40:49.827Z,24.40
2023-05-14T03:43:35.123Z,23.75
2023-05-14T03:46:20.040Z,24.55
2023-05-14T03:49:05.243Z,26.15
2023-05-14T03:51:50.663Z,26.38
2023-05-14T03:54:35.860Z,25.58
2023-05-14T03:57:21.262Z,24.58
2023-05-14T04:00:07.228Z,28.08
2023-05-14T04:02:52.202Z,27.25
2023-05-14T04:05:37.180Z,26.20
2023-05-14T04:08:22.464Z,27.70
2023-05-14T04:11:08.280Z,27.08
2023-05-14T04:13:53.237Z,26.35
2023-05-14T04:16:38.610Z,26.60
2023-05-14T04:19:23.669Z,28.70
2023-05-14T04:22:08.927Z,27.38
2023-05-14T04:24:54.131Z,27.88
2023-05-14T04:27:39.783Z,26.75
2023-05-14T04:30:25.334Z,26.48
2023-05-14T04:33:10.373Z,27.58
2023-05-14T04:35:55.924Z,28.38
2023-05-14T04:38:41.461Z,26.00
2023-05-14T04:41:26.550Z,26.58
2023-05-14T04:44:12.930Z,25.42
2023-05-14T04:46:58.017Z,25.67
2023-05-14T04:49:43.371Z,25.05
2023-05-14T04:52:28.539Z,26.17
2023-05-14T04:55:13.309Z,25.17
2023-05-14T04:57:58.259Z,25.80
2023-05-14T05:00:43.688Z,25.88
2023-05-14T05:03:28.750Z,26.92
2023-05-14T05:06:13.898Z,24.42
2023-05-14T05:09:01.257Z,25.50
2023-05-14T05:11:46.857Z,25.45
2023-05-14T05:14:31.761Z,25.40
2023-05-14T05:17:16.879Z,24.05
2023-05-14T05:20:02.057Z,27.10
2023-05-14T05:22:47.065Z,27.52
2023-05-14T05:25:31.971Z,26.75
2023-05-14T05:28:17.303Z,26.02
2023-05-14T05:31:02.589Z,26.50
2023-05-14T05:33:47.930Z,26.55
2023-05-14T05:36:33.808Z,26.20
2023-05-14T05:39:19.109Z,25.85
2023-05-14T05:42:05.485Z,27.45
2023-05-14T05:44:50.742Z,27.35
2023-05-14T05:47:36.245Z,25.20
2023-05-14T05:50:21.757Z,25.95
2023-05-14T05:53:07.129Z,27.27
2023-05-14T05:55:52.134Z,24.75
2023-05-14T05:58:40.541Z,25.35
2023-05-14T06:01:26.619Z,26.02
2023-05-14T06:04:11.489Z,25.02
2023-05-14T06:06:56.385Z,28.08
2023-05-14T06:09:41.253Z,27.45
2023-05-14T06:12:26.258Z,27.08
2023-05-14T06:15:12.228Z,26.02
2023-05-14T06:17:57.588Z,26.33
2023-05-14T06:20:42.851Z,26.08
2023-05-14T06:23:28.045Z,24.50
2023-05-14T06:26:13.090Z,25.88
2023-05-14T06:28:59.098Z,24.17
2023-05-14T06:31:44.342Z,25.73
2023-05-14T06:34:30.116Z,25.23
2023-05-14T06:37:15.021Z,24.95
2023-05-14T06:40:01.230Z,24.90
2023-05-14T06:42:46.410Z,24.70
2023-05-14T06:45:33.217Z,26.15
2023-05-14T06:48:19.148Z,25.52
2023-05-14T06:51:04.391Z,25.77
2023-05-14T06:53:49.675Z,23.67
2023-05-14T06:56:35.084Z,23.58
2023-05-14T06:59:20.355Z,23.75
2023-05-14T07:02:05.918Z,23.52
2023-05-14T07:04:51.088Z,21.42
2023-05-14T07:07:36.229Z,22.45
2023-05-14T07:10:21.723Z,22.88
2023-05-14T07:13:08.204Z,22.55
2023-05-14T07:15:55.572Z,23.98
2023-05-14T07:18:40.933Z,26.15
2023-05-14T07:21:26.114Z,23.67
2023-05-14T07:24:11.092Z,23.90
2023-05-14T07:26:57.235Z,24.15
2023-05-14T07:29:42.561Z,24.83
2023-05-14T07:32:27.961Z,24.73
2023-05-14T07:35:13.022Z,22.90
2023-05-14T07:37:58.439Z,23.02
2023-05-14T07:40:43.719Z,22.77
2023-05-14T07:43:28.933Z,23.70
2023-05-14T07:46:14.704Z,22.27
2023-05-14T07:48:59.552Z,21.40
2023-05-14T07:51:44.646Z,22.52
2023-05-14T07:54:29.550Z,21.23
2023-05-14T07:57:14.484Z,22.25
2023-05-14T07:59:59.669Z,22.08
2023-05-14T08:02:45.059Z,21.30
2023-05-14T08:05:31.448Z,22.27
2023-05-14T08:08:17.079Z,21.45
2023-05-14T08:11:03.552Z,21.88
2023-05-14T08:13:48.689Z,21.95
2023-05-14T08:16:33.974Z,21.83
2023-05-14T08:19:19.312Z,21.92
2023-05-14T08:22:05.017Z,22.05
2023-05-14T08:24:49.975Z,22.33
2023-05-14T08:27:35.105Z,22.25
2023-05-14T08:30:21.326Z,21.85
2023-05-14T08:33:06.730Z,21.92
2023-05-14T08:35:53.005Z,21.83
2023-05-14T08:38:38.297Z,21.67
2023-05-14T08:41:23.372Z,21.52
2023-05-14T08:44:20.067Z,21.45
2023-05-14T08:47:06.802Z,20.95
2023-05-14T08:50:04.271Z,20.75
2023-05-14T08:52:49.759Z,20.05
2023-05-14T08:55:36.260Z,21.90
2023-05-14T08:58:21.294Z,22.05
2023-05-14T09:01:06.669Z,22.25
2023-05-14T09:03:53.870Z,21.90
2023-05-14T09:06:40.037Z,21.13
2023-05-14T09:09:26.650Z,21.08
2023-05-14T09:12:11.977Z,20.33
2023-05-14T09:14:56.829Z,21.10
2023-05-14T09:17:41.750Z,21.13
2023-05-14T09:20:28.533Z,20.95
2023-05-14T09:23:13.918Z,21.02
2023-05-14T09:25:58.987Z,20.63
2023-05-14T09:28:44.694Z,21.13
2023-05-14T09:31:31.702Z,20.40
2023-05-14T09:34:30.502Z,20.17
2023-05-14T09:37:15.704Z,20.02
2023-05-14T09:40:06.560Z,19.48
2023-05-14T09:42:51.462Z,19.45
2023-05-14T09:45:36.685Z,19.60
2023-05-14T09:48:22.923Z,18.95
2023-05-14T09:51:10.005Z,20.05
2023-05-14T09:53:55.025Z,20.05
2023-05-14T09:56:40.740Z,18.48
2023-05-14T09:59:25.877Z,18.50
2023-05-14T10:02:25.722Z,18.40
2023-05-14T10:05:13.119Z,17.75
2023-05-14T10:08:00.011Z,17.33
2023-05-14T10:10:46.744Z,17.67
2023-05-14T10:13:39.352Z,19.15
2023-05-14T10:16:32.002Z,18.10
2023-05-14T10:19:20.802Z,17.35
2023-05-14T10:22:11.201Z,17.52
2023-05-14T10:24:56.855Z,16.98
2023-05-14T10:27:42.351Z,16.92
2023-05-14T10:30:27.631Z,17.23
2023-05-14T10:33:15.455Z,16.77
2023-05-14T10:36:05.945Z,16.58
2023-05-14T10:38:55.946Z,17.55
2023-05-14T10:44:27.059Z,18.58
2023-05-14T10:47:11.995Z,18.45
2023-05-14T10:49:59.864Z,18.52
2023-05-14T10:52:46.279Z,17.70
2023-05-14T10:55:31.316Z,17.88
2023-05-14T10:58:16.319Z,18.75
2023-05-14T11:01:02.131Z,17.13
2023-05-14T11:03:47.208Z,17.88
2023-05-14T11:06:33.036Z,16.55
2023-05-14T11:09:20.826Z,15.75
2023-05-14T11:12:06.410Z,14.80
2023-05-14T11:14:51.858Z,15.48
2023-05-14T11:17:38.516Z,14.93
2023-05-14T11:20:23.823Z,17.27
2023-05-14T11:23:09.149Z,15.48
2023-05-14T11:25:56.176Z,14.57
2023-05-14T11:28:41.519Z,15.40
2023-05-14T11:31:27.632Z,15.90
2023-05-14T11:34:12.575Z,15.68
2023-05-14T11:36:57.399Z,15.40
2023-05-14T11:39:50.576Z,15.74
2023-05-14T11:42:37.174Z,15.43
2023-05-14T11:45:29.832Z,14.82
2023-05-14T11:48:15.012Z,15.73
2023-05-14T11:51:00.338Z,15.70
2023-05-14T11:53:46.403Z,12.77
2023-05-14T11:56:31.814Z,13.32
2023-05-14T11:59:17.666Z,14.15
2023-05-14T12:02:05.061Z,14.20
2023-05-14T12:04:57.634Z,13.77
2023-05-14T12:07:44.941Z,13.75
2023-05-14T12:10:30.052Z,13.82
2023-05-14T12:13:17.304Z,12.73
2023-05-14T12:16:02.964Z,13.93
2023-05-14T12:18:48.448Z,13.38
2023-05-14T12:21:34.806Z,13.00
2023-05-14T12:24:20.071Z,14.10
2023-05-14T12:27:05.654Z,13.65
2023-05-14T12:30:01.953Z,13.05
2023-05-14T12:32:54.571Z,12.73
2023-05-14T12:35:40.129Z,8.93
2023-05-14T12:38:25.462Z,11.00
2023-05-14T12:41:10.333Z,10.50
2023-05-14T12:43:55.414Z,10.35
2023-05-14T12:46:40.521Z,10.48
2023-05-14T12:49:25.878Z,10.07
2023-05-14T12:54:59.078Z,9.48
2023-05-14T12:57:44.343Z,9.95
2023-05-14T13:00:29.725Z,11.68
2023-05-14T13:03:15.175Z,10.20
2023-05-14T13:06:00.448Z,12.48
2023-05-14T13:08:46.107Z,12.07
2023-05-14T13:11:32.108Z,12.57
2023-05-14T13:14:18.422Z,12.45
2023-05-14T13:17:05.900Z,10.18
2023-05-14T13:19:51.112Z,9.50
2023-05-14T13:22:36.110Z,8.65
2023-05-14T13:25:21.448Z,7.72
2023-05-14T13:28:06.861Z,7.82
2023-05-14T13:31:12.442Z,8.48
2023-05-14T13:33:59.321Z,7.55
2023-05-14T13:36:44.704Z,8.68
2023-05-14T13:39:29.887Z,7.88
2023-05-14T13:42:14.785Z,9.93
2023-05-14T13:45:00.013Z,8.77
2023-05-14T13:47:44.880Z,7.53
2023-05-14T13:50:29.660Z,7.75
2023-05-14T13:53:14.648Z,7.43
2023-05-14T13:56:01.618Z,7.57
2023-05-14T13:58:46.471Z,8.75
2023-05-14T14:01:31.981Z,9.55
2023-05-14T14:04:17.644Z,8.43
2023-05-14T14:07:03.334Z,6.63
2023-05-14T14:09:48.447Z,8.30
2023-05-14T14:12:33.607Z,7.60
2023-05-14T14:15:18.532Z,6.38
2023-05-14T14:18:03.735Z,7.82
2023-05-14T14:20:49.085Z,7.05
2023-05-14T14:23:34.247Z,6.38
2023-05-14T14:26:19.185Z,7.45
2023-05-14T14:29:04.260Z,6.78
2023-05-14T14:31:49.736Z,6.72
2023-05-14T14:34:35.079Z,6.38
2023-05-14T14:37:21.307Z,6.55
2023-05-14T14:40:09.922Z,6.45
2023-05-14T14:42:55.248Z,7.80
2023-05-14T14:45:40.518Z,7.07
2023-05-14T14:48:28.781Z,6.97
2023-05-14T14:51:13.859Z,7.22
2023-05-14T14:53:58.851Z,7.00
2023-05-14T14:56:45.838Z,6.30
2023-05-14T14:59:30.992Z,6.30
2023-05-14T15:02:16.242Z,5.68
2023-05-14T15:05:01.641Z,5.97
2023-05-14T15:07:46.794Z,11.15
2023-05-14T15:10:32.131Z,7.13
2023-05-14T15:13:17.590Z,6.55
2023-05-14T15:16:02.758Z,17.45
2023-05-14T15:18:47.833Z,5.63
2023-05-14T15:21:33.970Z,5.95
2023-05-14T15:24:19.349Z,6.28
2023-05-14T15:27:04.720Z,16.85
2023-05-14T15:29:49.889Z,11.73
2023-05-14T15:32:34.896Z,14.00
2023-05-14T15:35:20.128Z,7.82
2023-05-14T15:38:06.892Z,6.30
2023-05-14T15:40:51.932Z,5.25
2023-05-14T15:43:37.070Z,4.88
2023-05-14T15:46:23.474Z,4.13
2023-05-14T15:49:08.506Z,3.63
2023-05-14T15:51:53.522Z,3.38
2023-05-14T15:54:38.781Z,3.25
2023-05-14T15:57:23.948Z,2.80
2023-05-14T16:00:12.584Z,2.47
2023-05-14T16:02:57.562Z,2.50
2023-05-14T16:05:42.989Z,2.63
2023-05-14T16:08:27.948Z,1.92
2023-05-14T16:11:12.887Z,2.10
2023-05-14T16:13:58.433Z,2.47
2023-05-14T16:16:43.870Z,2.60
2023-05-14T16:19:29.096Z,2.25
2023-05-14T16:22:13.943Z,2.88
2023-05-14T16:25:00.190Z,2.58
2023-05-14T16:27:46.759Z,2.50
2023-05-14T16:30:31.818Z,3.00
2023-05-14T16:33:17.140Z,2.55
2023-05-14T16:36:02.045Z,2.45
2023-05-14T16:39:06.225Z,2.60
2023-05-14T16:41:52.440Z,2.42
2023-05-14T16:44:37.478Z,2.40
2023-05-14T16:47:22.936Z,2.30
2023-05-14T16:50:08.398Z,2.72
2023-05-14T16:52:53.384Z,2.58
2023-05-14T16:55:38.563Z,2.80
2023-05-14T16:58:23.467Z,2.30
2023-05-14T17:01:09.770Z,2.55
2023-05-14T17:03:55.295Z,2.13
2023-05-14T17:06:40.529Z,2.13
2023-05-14T17:09:25.570Z,2.10
2023-05-14T17:12:12.780Z,2.33
2023-05-14T17:14:58.436Z,2.55
2023-05-14T17:17:43.766Z,2.30
2023-05-14T17:20:28.987Z,2.30
2023-05-14T17:23:14.140Z,2.92
2023-05-14T17:25:59.403Z,3.40
2023-05-14T17:28:44.773Z,2.83
2023-05-14T17:31:29.768Z,2.88
2023-05-14T17:34:15.310Z,2.88
2023-05-14T17:37:00.939Z,3.03
2023-05-14T17:39:45.918Z,2.92
2023-05-14T17:42:31.100Z,2.80
2023-05-14T17:45:20.565Z,2.97
2023-05-14T17:48:05.946Z,3.10
2023-05-14T17:50:54.174Z,5.40
2023-05-14T17:53:39.100Z,10.05
2023-05-14T17:56:24.619Z,12.10
2023-05-14T17:59:09.774Z,12.77
2023-05-14T18:01:54.769Z,15.30
2023-05-14T18:04:39.787Z,16.60
2023-05-14T18:07:24.954Z,15.98
2023-05-14T18:10:10.483Z,19.20
2023-05-14T18:12:56.239Z,21.65
2023-05-14T18:15:41.476Z,21.08
2023-05-14T18:18:26.778Z,23.25
2023-05-14T18:21:11.900Z,22.63
2023-05-14T18:23:56.895Z,22.52
2023-05-14T18:26:42.319Z,22.48
2023-05-14T18:29:27.829Z,23.30
2023-05-14T18:32:12.973Z,23.63
2023-05-14T18:34:58.045Z,22.63
2023-05-14T18:37:43.093Z,23.05
2023-05-14T18:40:28.148Z,23.40
2023-05-14T18:43:13.552Z,24.50
2023-05-14T18:45:58.917Z,23.10
2023-05-14T18:48:44.239Z,25.30
2023-05-14T18:51:29.567Z,25.30
2023-05-14T18:54:14.613Z,25.42
2023-05-14T18:57:00.756Z,25.65
2023-05-14T18:59:45.774Z,25.90
2023-05-14T19:02:31.275Z,25.15
2023-05-14T19:05:16.540Z,25.70
2023-05-14T19:08:01.918Z,25.50
2023-05-14T19:10:47.086Z,25.65
2023-05-14T19:13:32.376Z,25.83
2023-05-14T19:16:17.529Z,25.92
2023-05-14T19:19:03.127Z,26.30
2023-05-14T19:21:48.044Z,27.15
2023-05-14T19:24:33.172Z,25.65
2023-05-14T19:27:18.400Z,26.17
2023-05-14T19:30:03.811Z,26.70
2023-05-14T19:32:49.278Z,25.50
2023-05-14T19:35:34.590Z,26.83
2023-05-14T19:38:19.760Z,25.60
2023-05-14T19:41:04.755Z,26.50
2023-05-14T19:43:49.701Z,26.52
2023-05-14T19:46:35.113Z,26.80
2023-05-14T19:49:20.307Z,27.33
2023-05-14T19:52:05.701Z,26.83
2023-05-14T19:54:50.829Z,28.30
2023-05-14T19:57:37.153Z,28.10
2023-05-14T20:00:22.839Z,27.02
2023-05-14T20:03:07.983Z,27.05
2023-05-14T20:05:54.057Z,26.92
2023-05-14T20:08:39.040Z,27.02
2023-05-14T20:11:24.085Z,26.90
2023-05-14T20:14:09.111Z,27.63
2023-05-14T20:16:54.088Z,27.35
2023-05-14T20:19:39.165Z,27.92
2023-05-14T20:22:23.925Z,27.73
2023-05-14T20:25:10.041Z,30.38
2023-05-14T20:27:55.454Z,29.45
2023-05-14T20:30:40.683Z,29.02
2023-05-14T20:33:26.399Z,29.23
2023-05-14T20:36:11.745Z,29.45
2023-05-14T20:38:57.107Z,30.48
2023-05-14T20:41:42.076Z,30.08
2023-05-14T20:44:27.126Z,31.08
2023-05-14T20:47:16.259Z,30.00
2023-05-14T20:50:01.698Z,29.70
2023-05-14T20:52:46.816Z,28.92
2023-05-14T20:55:32.307Z,31.17
2023-05-14T20:58:17.190Z,30.08
2023-05-14T21:01:03.410Z,30.20
2023-05-14T21:03:48.577Z,28.67
2023-05-14T21:06:33.691Z,30.42
2023-05-14T21:09:20.843Z,30.42
2023-05-14T21:12:06.344Z,29.50
2023-05-14T21:14:51.605Z,29.48
2023-05-14T21:17:36.511Z,30.08
2023-05-14T21:20:21.534Z,30.17
2023-05-14T21:23:06.651Z,29.10
2023-05-14T21:25:54.589Z,28.60
2023-05-14T21:28:39.928Z,28.27
2023-05-14T21:31:25.175Z,26.88
2023-05-14T21:34:10.617Z,29.50
2023-05-14T21:36:56.035Z,27.63
2023-05-14T21:39:41.129Z,27.40
2023-05-14T21:42:26.192Z,28.20
2023-05-14T21:45:11.339Z,27.30
2023-05-14T21:47:56.731Z,27.15
2023-05-14T21:50:42.355Z,26.17
2023-05-14T21:53:27.346Z,27.25
2023-05-14T21:56:12.288Z,27.13
2023-05-14T21:58:57.218Z,26.25
2023-05-14T22:02:04.856Z,27.17
2023-05-14T22:04:47.674Z,26.70
2023-05-14T22:07:32.826Z,26.60
2023-05-14T22:10:18.981Z,25.88
2023-05-14T22:13:04.146Z,26.25
2023-05-14T22:15:51.386Z,25.73
2023-05-14T22:18:40.823Z,25.25
2023-05-14T22:21:25.917Z,30.70
2023-05-14T22:24:10.785Z,25.10
2023-05-14T22:26:56.001Z,25.35
2023-05-14T22:29:41.488Z,24.67
2023-05-14T22:32:26.793Z,23.90
2023-05-14T22:35:12.693Z,23.67
2023-05-14T22:37:57.878Z,24.25
2023-05-14T22:40:42.957Z,23.95
2023-05-14T22:43:28.011Z,24.33
2023-05-14T22:46:13.405Z,23.55
2023-05-14T22:48:58.662Z,23.35
2023-05-14T22:51:43.833Z,22.73
2023-05-14T22:54:28.667Z,23.77
2023-05-14T22:57:13.684Z,23.35
2023-05-14T22:59:58.961Z,22.77
2023-05-14T23:02:44.479Z,23.65
2023-05-14T23:05:29.893Z,23.30
2023-05-14T23:08:14.741Z,22.73
2023-05-14T23:11:00.847Z,22.77
2023-05-14T23:13:46.161Z,22.33
2023-05-14T23:16:31.830Z,21.90
2023-05-14T23:19:17.251Z,21.30
2023-05-14T23:22:02.723Z,21.83
2023-05-14T23:24:48.061Z,20.70
2023-05-14T23:27:34.189Z,19.35
2023-05-14T23:30:19.443Z,19.77
2023-05-14T23:33:04.839Z,19.80
2023-05-14T23:35:52.043Z,18.95
2023-05-14T23:38:37.618Z,17.83
2023-05-14T23:41:22.794Z,16.55
2023-05-14T23:44:07.720Z,17.08
2023-05-14T23:46:53.036Z,15.73
2023-05-14T23:49:40.775Z,16.08
2023-05-14T23:52:25.733Z,15.65
2023-05-14T23:55:10.714Z,15.75
2023-05-14T23:57:55.712Z,14.50
